Time;durP1;ratioP1;P1;durP2;ratioP2;P2;SDS_P1;SDS_P2;PMS_P1;PMS_P2;Temp;Humidity;BMP_temperature;BMP_pressure;BME280_temperature;BME280_humidity;BME280_pressure;Samples;Min_cycle;Max_cycle;Signal;HPM_P1;HPM_P2
2023/07/21 00:00:17;;;;;;;6.68;4.45;;;22.90;99.90;;;;;;5012280;28;20113;-71
2023/07/21 00:02:44;;;;;;;9.48;4.40;;;23.00;99.90;;;;;;5013936;28;20072;-72
2023/07/21 00:05:11;;;;;;;9.35;4.70;;;22.90;99.90;;;;;;5015336;28;20025;-72
2023/07/21 00:07:37;;;;;;;9.20;4.15;;;22.80;99.90;;;;;;5018153;28;20026;-72
2023/07/21 00:10:07;;;;;;;6.45;4.40;;;22.70;99.90;;;;;;5017987;28;20076;-72
2023/07/21 00:12:37;;;;;;;11.40;4.95;;;22.60;99.90;;;;;;5017012;28;20053;-72
2023/07/21 00:15:07;;;;;;;7.15;4.25;;;22.70;99.90;;;;;;5010218;28;20834;-72
2023/07/21 00:17:34;;;;;;;8.32;5.07;;;22.80;99.90;;;;;;5016977;28;20037;-72
2023/07/21 00:20:10;;;;;;;9.52;4.40;;;22.90;99.90;;;;;;5016361;28;20041;-72
2023/07/21 00:22:42;;;;;;;8.20;4.78;;;23.10;99.90;;;;;;5016896;28;20030;-72
2023/07/21 00:25:11;;;;;;;10.15;4.80;;;23.20;99.90;;;;;;5010895;28;20132;-72
2023/07/21 00:27:43;;;;;;;8.07;4.60;;;23.00;99.90;;;;;;5013336;28;20487;-72
2023/07/21 00:30:09;;;;;;;8.63;4.53;;;22.90;99.90;;;;;;5014588;28;20030;-72
2023/07/21 00:32:39;;;;;;;10.20;4.88;;;22.90;99.90;;;;;;5015185;28;20109;-72
2023/07/21 00:35:10;;;;;;;7.43;4.38;;;22.80;99.90;;;;;;5013326;28;20030;-72
2023/07/21 00:37:36;;;;;;;10.15;4.82;;;22.50;99.90;;;;;;5012816;28;20034;-72
2023/07/21 00:40:04;;;;;;;10.40;4.65;;;22.40;99.90;;;;;;5009347;28;20026;-72
2023/07/21 00:42:30;;;;;;;9.98;4.72;;;22.40;99.90;;;;;;5010085;28;20048;-72
2023/07/21 00:44:56;;;;;;;11.48;4.90;;;22.50;99.90;;;;;;5013240;28;20069;-71
2023/07/21 00:47:24;;;;;;;8.73;4.25;;;22.50;99.90;;;;;;5012203;28;20033;-72
2023/07/21 00:49:50;;;;;;;10.77;4.43;;;22.40;99.90;;;;;;5011029;28;20022;-71
2023/07/21 00:52:18;;;;;;;7.78;4.13;;;22.40;99.90;;;;;;5023976;28;20061;-71
2023/07/21 00:54:47;;;;;;;7.18;4.40;;;22.40;99.90;;;;;;5016766;28;23693;-72
2023/07/21 00:57:16;;;;;;;8.32;4.00;;;22.30;99.90;;;;;;5012514;28;20025;-72
2023/07/21 00:59:42;;;;;;;7.70;3.97;;;22.20;99.90;;;;;;5010678;28;20036;-72
2023/07/21 01:02:07;;;;;;;7.32;3.78;;;22.30;99.90;;;;;;5009837;28;20434;-72
2023/07/21 01:04:34;;;;;;;7.93;4.85;;;22.40;99.90;;;;;;5012159;28;20038;-72
2023/07/21 01:07:03;;;;;;;9.98;4.95;;;22.40;99.90;;;;;;5011561;28;20056;-72
2023/07/21 01:09:30;;;;;;;8.65;4.80;;;22.30;99.90;;;;;;5008232;28;20029;-72
2023/07/21 01:11:56;;;;;;;7.53;4.18;;;22.20;99.90;;;;;;5011010;28;20057;-71
2023/07/21 01:14:21;;;;;;;6.95;3.90;;;22.20;99.90;;;;;;5010335;28;20507;-72
2023/07/21 01:16:48;;;;;;;9.10;4.10;;;22.30;99.90;;;;;;5011358;28;20033;-72
2023/07/21 01:19:15;;;;;;;9.90;4.20;;;22.30;99.90;;;;;;5013913;28;20057;-72
2023/07/21 01:22:31;;;;;;;9.15;4.82;;;22.40;99.90;;;;;;5009289;28;20451;-71
2023/07/21 01:25:07;;;;;;;8.48;4.22;;;22.50;99.90;;;;;;4996436;28;20107;-72
2023/07/21 01:27:39;;;;;;;12.82;4.53;;;22.70;99.90;;;;;;5007544;28;20413;-72
2023/07/21 01:30:09;;;;;;;8.00;4.55;;;22.70;99.90;;;;;;5008242;28;20440;-72
2023/07/21 01:32:37;;;;;;;9.48;4.75;;;22.60;99.90;;;;;;5010578;28;20026;-72
2023/07/21 01:35:04;;;;;;;8.10;4.70;;;22.50;99.90;;;;;;5011629;28;20018;-72
2023/07/21 01:37:31;;;;;;;8.98;4.85;;;22.60;99.90;;;;;;5011565;28;20037;-72
2023/07/21 01:39:58;;;;;;;8.93;5.13;;;22.40;99.90;;;;;;5009476;28;20128;-72
2023/07/21 01:42:29;;;;;;;9.20;5.00;;;22.40;99.90;;;;;;5013175;28;20022;-72
2023/07/21 01:44:56;;;;;;;10.80;4.85;;;22.30;99.90;;;;;;5009735;28;20045;-72
2023/07/21 01:47:24;;;;;;;7.75;4.45;;;22.20;99.90;;;;;;5017549;28;20356;-72
2023/07/21 01:49:50;;;;;;;11.02;4.60;;;21.90;99.90;;;;;;5021504;28;20396;-72
2023/07/21 01:52:18;;;;;;;9.63;5.18;;;21.80;99.90;;;;;;5007563;28;20030;-72
2023/07/21 01:54:53;;;;;;;7.45;4.18;;;21.50;99.90;;;;;;5013597;28;20437;-72
2023/07/21 01:57:26;;;;;;;6.45;3.78;;;21.50;99.90;;;;;;5009947;28;20022;-72
2023/07/21 01:59:54;;;;;;;10.68;4.65;;;21.70;99.90;;;;;;5015506;28;20079;-72
2023/07/21 02:02:20;;;;;;;10.85;4.45;;;21.80;99.90;;;;;;5007592;28;20540;-72
2023/07/21 02:04:50;;;;;;;8.13;4.60;;;21.90;99.90;;;;;;5014241;28;20038;-71
2023/07/21 02:07:18;;;;;;;9.43;4.13;;;21.80;99.90;;;;;;5016385;28;20512;-71
2023/07/21 02:09:44;;;;;;;10.65;4.00;;;21.80;99.90;;;;;;5014476;28;20029;-72
2023/07/21 02:12:11;;;;;;;9.40;4.03;;;22.00;99.90;;;;;;5014921;28;20038;-72
2023/07/21 02:14:37;;;;;;;6.38;3.70;;;22.00;99.90;;;;;;5011435;28;20042;-72
2023/07/21 02:17:03;;;;;;;8.35;3.88;;;22.00;99.90;;;;;;5013628;28;20029;-72
2023/07/21 02:19:28;;;;;;;8.57;4.00;;;21.80;99.90;;;;;;5009818;28;20049;-72
2023/07/21 02:21:54;;;;;;;6.30;4.07;;;21.80;99.90;;;;;;5009185;28;20022;-72
2023/07/21 02:24:20;;;;;;;6.00;4.20;;;21.70;99.90;;;;;;5011270;28;20050;-71
2023/07/21 02:26:45;;;;;;;8.82;4.13;;;21.70;99.90;;;;;;5014473;28;20034;-72
2023/07/21 02:29:11;;;;;;;9.95;4.25;;;21.80;99.90;;;;;;5010751;28;20552;-72
2023/07/21 02:31:37;;;;;;;13.07;4.40;;;21.90;99.90;;;;;;5011480;28;20116;-71
2023/07/21 02:34:05;;;;;;;8.60;4.43;;;21.90;99.90;;;;;;5008606;28;20034;-72
2023/07/21 02:36:30;;;;;;;8.02;4.75;;;21.90;99.90;;;;;;5007295;28;20025;-72
2023/07/21 02:38:56;;;;;;;13.52;5.90;;;22.00;99.90;;;;;;5008863;28;20030;-72
2023/07/21 02:41:22;;;;;;;10.00;4.60;;;22.00;99.90;;;;;;5009873;28;20026;-72
2023/07/21 02:43:47;;;;;;;8.95;4.82;;;21.60;99.90;;;;;;5006766;28;20124;-72
2023/07/21 02:46:14;;;;;;;11.30;5.50;;;21.40;99.90;;;;;;5012126;28;20104;-72
2023/07/21 02:48:40;;;;;;;9.85;4.90;;;21.30;99.90;;;;;;5007892;28;20018;-72
2023/07/21 02:51:06;;;;;;;8.57;4.88;;;21.10;99.90;;;;;;5007458;28;20041;-71
2023/07/21 02:53:32;;;;;;;9.10;5.65;;;21.00;99.90;;;;;;5007531;28;20026;-72
2023/07/21 02:56:00;;;;;;;9.30;5.43;;;21.00;99.90;;;;;;5010716;28;20041;-72
2023/07/21 02:58:26;;;;;;;10.82;5.55;;;20.90;99.90;;;;;;5010723;28;20503;-72
2023/07/21 03:00:56;;;;;;;13.63;5.65;;;20.60;99.90;;;;;;5010547;28;20536;-72
2023/07/21 03:03:25;;;;;;;10.77;5.78;;;20.50;99.90;;;;;;5008681;28;20037;-72
2023/07/21 03:05:51;;;;;;;10.15;5.00;;;20.70;99.90;;;;;;5008255;28;20500;-72
2023/07/21 03:08:26;;;;;;;8.10;4.72;;;20.60;99.90;;;;;;5001114;28;20559;-72
2023/07/21 03:10:58;;;;;;;11.10;5.95;;;20.60;99.90;;;;;;5010502;28;20040;-72
2023/07/21 03:13:24;;;;;;;7.90;5.20;;;20.50;99.90;;;;;;5012897;28;20036;-72
2023/07/21 03:15:51;;;;;;;10.63;5.72;;;20.50;99.90;;;;;;5011755;28;20022;-72
2023/07/21 03:18:17;;;;;;;8.73;5.28;;;20.70;99.90;;;;;;5012617;28;20081;-72
2023/07/21 03:20:43;;;;;;;10.05;5.22;;;20.60;99.90;;;;;;5009042;28;20069;-72
2023/07/21 03:23:11;;;;;;;7.72;5.38;;;20.70;99.90;;;;;;5006095;28;20041;-72
2023/07/21 03:25:46;;;;;;;9.52;5.22;;;20.30;99.90;;;;;;5007404;28;20029;-72
2023/07/21 03:28:11;;;;;;;9.07;5.38;;;20.00;99.90;;;;;;5008694;28;20492;-72
2023/07/21 03:30:37;;;;;;;11.32;5.53;;;20.00;99.90;;;;;;5007691;28;20030;-72
2023/07/21 03:33:03;;;;;;;13.73;4.93;;;19.80;99.90;;;;;;5009596;28;20026;-72
2023/07/21 03:35:28;;;;;;;9.27;5.53;;;19.80;99.90;;;;;;5007735;28;20095;-72
2023/07/21 03:37:56;;;;;;;9.30;4.93;;;19.60;99.90;;;;;;5013018;28;20109;-72
2023/07/21 03:40:22;;;;;;;8.02;5.03;;;19.60;99.90;;;;;;5010217;28;20061;-72
2023/07/21 03:42:47;;;;;;;12.05;5.95;;;19.80;99.90;;;;;;5011715;28;20033;-72
2023/07/21 03:45:13;;;;;;;11.80;5.40;;;20.00;99.90;;;;;;5006771;28;20041;-72
2023/07/21 03:47:38;;;;;;;7.90;4.70;;;20.10;99.90;;;;;;5005124;28;20041;-72
2023/07/21 03:50:05;;;;;;;12.02;5.50;;;20.40;99.90;;;;;;5010277;28;20368;-72
2023/07/21 03:52:31;;;;;;;9.35;5.10;;;20.50;99.90;;;;;;5013593;28;20033;-72
2023/07/21 03:54:56;;;;;;;8.02;5.07;;;20.40;99.90;;;;;;5008637;28;20028;-72
2023/07/21 03:57:22;;;;;;;8.38;4.97;;;20.40;99.90;;;;;;5010390;28;20033;-71
2023/07/21 03:59:49;;;;;;;6.85;4.28;;;20.20;99.90;;;;;;5003472;28;20034;-72
2023/07/21 04:02:16;;;;;;;9.32;5.78;;;20.20;99.90;;;;;;5012202;28;20617;-72
2023/07/21 04:04:42;;;;;;;10.85;4.28;;;20.20;99.90;;;;;;5004969;28;20733;-72
2023/07/21 04:07:08;;;;;;;8.05;5.13;;;20.20;99.90;;;;;;5003360;28;20044;-71
2023/07/21 04:09:34;;;;;;;10.93;5.95;;;20.00;99.90;;;;;;5003250;28;20026;-71
2023/07/21 04:12:00;;;;;;;7.45;4.55;;;19.90;99.90;;;;;;5012521;28;20053;-71
2023/07/21 04:14:26;;;;;;;9.75;5.07;;;19.90;99.90;;;;;;5005465;28;20117;-72
2023/07/21 04:16:55;;;;;;;9.30;4.88;;;19.90;99.90;;;;;;5005004;28;20034;-71
2023/07/21 04:19:21;;;;;;;9.63;5.70;;;19.80;99.90;;;;;;4998276;28;20076;-72
2023/07/21 04:21:49;;;;;;;7.57;5.38;;;19.90;99.90;;;;;;5008835;28;20065;-72
2023/07/21 04:24:15;;;;;;;8.75;4.75;;;19.90;99.90;;;;;;5005776;28;20124;-72
2023/07/21 04:26:41;;;;;;;8.32;4.97;;;20.10;99.90;;;;;;5008176;28;20133;-72
2023/07/21 04:29:06;;;;;;;8.05;5.22;;;20.00;99.90;;;;;;5004638;28;20034;-72
2023/07/21 04:31:32;;;;;;;7.90;5.72;;;19.80;99.90;;;;;;5003631;28;20037;-72
2023/07/21 04:33:59;;;;;;;9.07;4.75;;;20.00;99.90;;;;;;5003217;28;20026;-72
2023/07/21 04:36:24;;;;;;;11.13;6.10;;;19.90;99.90;;;;;;5005171;28;20034;-72
2023/07/21 04:38:50;;;;;;;12.80;5.57;;;19.90;99.90;;;;;;5008487;28;20033;-72
2023/07/21 04:41:16;;;;;;;9.77;4.97;;;19.80;99.90;;;;;;5009836;28;20030;-71
2023/07/21 04:43:43;;;;;;;7.55;4.38;;;19.70;99.90;;;;;;5006084;28;20091;-72
2023/07/21 04:46:10;;;;;;;9.55;5.30;;;19.80;99.90;;;;;;5009373;28;20065;-72
2023/07/21 04:48:36;;;;;;;9.60;5.22;;;19.90;99.90;;;;;;5011825;28;20033;-72
2023/07/21 04:51:03;;;;;;;10.15;4.97;;;19.70;99.90;;;;;;5003137;28;20033;-72
2023/07/21 04:53:29;;;;;;;7.65;4.93;;;19.80;99.90;;;;;;5003779;28;20033;-72
2023/07/21 04:55:57;;;;;;;8.88;5.00;;;19.80;99.90;;;;;;5010672;28;20029;-72
2023/07/21 04:58:22;;;;;;;11.05;5.68;;;19.80;99.90;;;;;;5002392;28;20061;-72
2023/07/21 05:00:52;;;;;;;7.85;4.65;;;19.80;99.90;;;;;;5000560;28;20073;-72
2023/07/21 05:03:17;;;;;;;7.22;5.30;;;19.90;99.90;;;;;;5002223;28;20133;-72
2023/07/21 05:05:45;;;;;;;9.63;5.40;;;19.90;99.90;;;;;;5002202;28;20136;-72
2023/07/21 05:08:11;;;;;;;10.23;5.05;;;20.10;99.90;;;;;;5002381;28;20037;-72
2023/07/21 05:10:37;;;;;;;8.00;5.22;;;20.00;99.90;;;;;;5010809;28;20039;-72
2023/07/21 05:13:06;;;;;;;12.70;5.22;;;20.00;99.90;;;;;;5001357;28;20045;-72
2023/07/21 05:15:35;;;;;;;8.02;5.07;;;20.10;99.90;;;;;;5008093;28;20041;-72
2023/07/21 05:18:02;;;;;;;8.65;4.72;;;20.00;99.90;;;;;;4985259;28;20036;-72
2023/07/21 05:20:27;;;;;;;8.18;5.43;;;20.10;99.90;;;;;;5006661;28;20129;-72
2023/07/21 05:22:53;;;;;;;8.82;4.97;;;20.10;99.90;;;;;;5007470;28;20120;-72
2023/07/21 05:25:19;;;;;;;11.20;5.63;;;20.10;99.90;;;;;;5008711;28;20076;-72
2023/07/21 05:27:48;;;;;;;10.48;4.93;;;20.10;99.90;;;;;;5002542;28;20033;-71
2023/07/21 05:30:14;;;;;;;8.02;4.75;;;20.10;99.90;;;;;;5010332;28;20071;-72
2023/07/21 05:32:41;;;;;;;7.55;4.82;;;20.30;99.90;;;;;;5005404;28;20030;-71
2023/07/21 05:35:10;;;;;;;8.45;5.50;;;20.30;99.90;;;;;;5003865;28;20037;-71
2023/07/21 05:37:36;;;;;;;9.10;5.60;;;20.30;99.90;;;;;;5009859;28;20056;-71
2023/07/21 05:40:03;;;;;;;7.80;5.13;;;20.40;99.90;;;;;;5002246;28;20951;-72
2023/07/21 05:42:29;;;;;;;8.75;5.15;;;20.40;99.90;;;;;;5001519;28;23027;-71
2023/07/21 05:44:55;;;;;;;8.48;4.63;;;20.30;99.90;;;;;;5002795;28;20045;-72
2023/07/21 05:47:21;;;;;;;10.43;4.68;;;20.30;99.90;;;;;;5006990;28;20061;-72
2023/07/21 05:49:46;;;;;;;10.60;4.97;;;20.40;99.90;;;;;;5004564;28;20036;-71
2023/07/21 05:52:12;;;;;;;9.63;5.35;;;20.40;99.90;;;;;;5004929;28;20362;-71
2023/07/21 05:54:39;;;;;;;15.23;5.32;;;20.50;99.90;;;;;;5006342;28;20034;-72
2023/07/21 05:57:06;;;;;;;8.32;5.55;;;20.70;99.90;;;;;;5001805;28;20137;-72
2023/07/21 05:59:32;;;;;;;7.88;5.40;;;20.80;99.90;;;;;;5005329;28;20060;-72
2023/07/21 06:02:00;;;;;;;9.55;5.82;;;20.80;99.90;;;;;;5004251;28;20084;-71
2023/07/21 06:04:26;;;;;;;7.45;5.22;;;21.10;99.90;;;;;;5003489;28;20400;-70
2023/07/21 06:06:55;;;;;;;8.88;4.85;;;21.20;99.90;;;;;;5003769;28;20026;-71
2023/07/21 06:09:20;;;;;;;8.45;5.28;;;21.40;99.90;;;;;;5004892;28;20026;-72
2023/07/21 06:11:46;;;;;;;10.95;5.50;;;21.50;99.90;;;;;;5004295;28;20052;-72
2023/07/21 06:14:12;;;;;;;9.10;4.82;;;21.40;99.90;;;;;;5018936;28;20033;-72
2023/07/21 06:16:37;;;;;;;9.50;5.18;;;21.50;99.90;;;;;;5008961;28;20026;-72
2023/07/21 06:19:03;;;;;;;9.70;5.43;;;21.50;99.90;;;;;;5010545;28;20045;-72
2023/07/21 06:21:29;;;;;;;9.30;5.47;;;21.30;99.90;;;;;;4987623;28;20412;-71
2023/07/21 06:23:54;;;;;;;11.45;5.70;;;21.10;99.90;;;;;;5000172;28;20042;-71
2023/07/21 06:26:20;;;;;;;8.27;5.15;;;21.00;99.90;;;;;;5004277;28;20029;-71
2023/07/21 06:28:46;;;;;;;10.35;5.93;;;21.00;99.90;;;;;;5009874;28;20120;-71
2023/07/21 06:31:12;;;;;;;8.07;5.50;;;21.10;99.90;;;;;;5005185;28;20034;-72
2023/07/21 06:33:38;;;;;;;11.13;5.75;;;21.20;99.90;;;;;;5000935;28;20037;-71
2023/07/21 06:36:04;;;;;;;8.32;5.28;;;21.30;99.90;;;;;;5003211;28;20046;-71
2023/07/21 06:38:31;;;;;;;8.15;5.13;;;21.30;99.90;;;;;;5005453;28;20042;-71
2023/07/21 06:40:56;;;;;;;7.95;4.85;;;21.30;99.90;;;;;;5001836;28;20029;-71
2023/07/21 06:43:22;;;;;;;8.00;5.75;;;21.40;99.90;;;;;;5003427;28;20041;-71
2023/07/21 06:45:48;;;;;;;7.35;4.78;;;21.50;99.90;;;;;;5000411;28;20038;-71
2023/07/21 06:48:13;;;;;;;11.63;5.93;;;21.70;99.90;;;;;;5004341;28;20470;-72
2023/07/21 06:50:39;;;;;;;10.77;5.43;;;22.00;99.90;;;;;;5003455;28;20083;-71
2023/07/21 06:53:06;;;;;;;8.25;4.85;;;22.00;99.90;;;;;;5006484;28;20088;-72
2023/07/21 06:55:32;;;;;;;12.18;4.90;;;22.20;99.90;;;;;;5010826;28;20065;-72
2023/07/21 06:57:58;;;;;;;8.95;5.50;;;22.30;99.90;;;;;;5004809;28;20034;-72
2023/07/21 07:00:24;;;;;;;8.57;5.50;;;22.50;99.90;;;;;;5008325;28;20022;-71
2023/07/21 07:02:49;;;;;;;9.15;5.07;;;22.60;99.90;;;;;;5008181;28;20037;-72
2023/07/21 07:05:16;;;;;;;13.77;4.90;;;22.70;99.90;;;;;;5006581;28;20040;-72
2023/07/21 07:07:42;;;;;;;9.20;6.07;;;22.80;99.90;;;;;;5008918;28;20060;-72
2023/07/21 07:10:09;;;;;;;11.63;5.45;;;22.90;99.90;;;;;;5010312;28;20088;-72
2023/07/21 07:12:34;;;;;;;8.13;5.28;;;22.90;99.90;;;;;;5009510;28;20357;-72
2023/07/21 07:15:00;;;;;;;12.38;4.90;;;22.80;99.90;;;;;;5009196;28;20040;-72
2023/07/21 07:17:26;;;;;;;8.90;5.20;;;23.00;99.90;;;;;;5010697;28;20899;-72
2023/07/21 07:19:51;;;;;;;9.32;4.75;;;23.30;99.90;;;;;;5006953;28;20046;-72
2023/07/21 07:22:17;;;;;;;7.15;3.95;;;23.50;99.90;;;;;;5006630;28;20041;-72
2023/07/21 07:24:43;;;;;;;10.18;5.50;;;24.00;99.90;;;;;;5010136;28;20157;-72
2023/07/21 07:27:09;;;;;;;7.43;4.63;;;24.40;99.90;;;;;;5010506;28;20412;-72
2023/07/21 07:29:35;;;;;;;8.25;4.88;;;24.60;99.90;;;;;;5006881;28;20052;-72
2023/07/21 07:32:01;;;;;;;7.22;4.38;;;25.20;99.90;;;;;;5007113;28;20559;-71
2023/07/21 07:34:27;;;;;;;10.38;4.50;;;26.10;99.90;;;;;;5004180;28;20833;-72
2023/07/21 07:36:53;;;;;;;8.85;4.90;;;27.00;99.90;;;;;;5006878;28;20030;-72
2023/07/21 07:39:18;;;;;;;8.20;4.75;;;27.70;99.90;;;;;;5006079;28;20398;-72
2023/07/21 07:41:50;;;;;;;8.70;4.78;;;28.80;99.90;;;;;;5010933;28;20032;-72
2023/07/21 07:44:15;;;;;;;6.47;4.30;;;29.50;99.50;;;;;;5005704;28;20492;-72
2023/07/21 07:46:41;;;;;;;8.82;4.43;;;29.60;98.60;;;;;;5005647;28;20157;-72
2023/07/21 07:49:08;;;;;;;8.20;4.65;;;29.40;99.40;;;;;;5005397;28;20037;-72
2023/07/21 07:51:37;;;;;;;7.43;4.72;;;29.30;98.80;;;;;;5008937;28;20022;-72
2023/07/21 07:54:05;;;;;;;11.93;4.72;;;29.60;98.20;;;;;;5010195;28;20156;-72
2023/07/21 07:56:31;;;;;;;8.85;4.63;;;29.30;98.30;;;;;;5009039;28;20835;-72
2023/07/21 07:58:57;;;;;;;8.55;5.18;;;29.70;98.70;;;;;;5003347;28;20046;-72
2023/07/21 08:01:23;;;;;;;7.95;4.78;;;30.30;98.70;;;;;;5010930;28;20032;-72
2023/07/21 08:03:49;;;;;;;7.72;4.78;;;30.70;98.40;;;;;;5007201;28;20109;-72
2023/07/21 08:06:15;;;;;;;9.48;5.07;;;30.50;97.30;;;;;;5006496;28;20172;-72
2023/07/21 08:08:42;;;;;;;7.80;4.40;;;30.60;97.40;;;;;;5004348;28;20028;-73
2023/07/21 08:11:08;;;;;;;9.88;5.32;;;29.80;98.00;;;;;;5005004;28;20196;-72
2023/07/21 08:13:34;;;;;;;10.25;4.85;;;29.10;98.00;;;;;;5002725;28;20029;-73
2023/07/21 08:16:00;;;;;;;12.75;5.07;;;28.80;99.00;;;;;;5007414;28;20333;-73
2023/07/21 08:18:26;;;;;;;9.93;4.80;;;28.10;99.90;;;;;;5004297;28;20029;-72
2023/07/21 08:20:51;;;;;;;8.52;4.53;;;27.70;99.90;;;;;;5003627;28;20344;-72
2023/07/21 08:23:17;;;;;;;9.40;5.90;;;27.90;99.90;;;;;;5004695;28;20026;-72
2023/07/21 08:25:43;;;;;;;7.13;4.63;;;27.90;99.90;;;;;;5005165;28;20204;-72
2023/07/21 08:28:08;;;;;;;14.48;6.25;;;27.10;99.90;;;;;;5006542;28;20033;-72
2023/07/21 08:30:35;;;;;;;14.35;4.82;;;27.00;99.90;;;;;;5009086;28;20038;-72
2023/07/21 08:33:02;;;;;;;8.48;4.85;;;27.10;99.90;;;;;;5001382;28;20468;-72
2023/07/21 08:35:28;;;;;;;7.45;4.50;;;26.60;99.90;;;;;;5012646;28;20033;-71
2023/07/21 08:37:55;;;;;;;9.80;4.65;;;26.40;99.90;;;;;;5001057;28;20052;-71
2023/07/21 08:40:22;;;;;;;16.77;5.68;;;26.40;99.90;;;;;;4999948;28;20094;-71
2023/07/21 08:42:50;;;;;;;10.38;4.05;;;26.30;99.90;;;;;;5008446;28;20038;-72
2023/07/21 08:45:16;;;;;;;6.38;3.95;;;25.70;99.90;;;;;;5001963;28;20038;-72
2023/07/21 08:47:41;;;;;;;7.13;4.38;;;25.50;99.90;;;;;;5000810;28;20037;-72
2023/07/21 08:50:07;;;;;;;6.65;3.85;;;25.50;99.90;;;;;;5003540;28;20038;-72
2023/07/21 08:52:33;;;;;;;6.45;3.92;;;25.90;99.90;;;;;;5006101;28;20074;-72
2023/07/21 08:55:02;;;;;;;6.05;3.40;;;26.40;99.90;;;;;;5005744;28;20034;-72
2023/07/21 08:57:28;;;;;;;7.55;3.95;;;26.20;99.90;;;;;;5005659;28;20488;-72
2023/07/21 08:59:56;;;;;;;6.38;3.50;;;25.90;99.90;;;;;;5014130;28;20056;-72
2023/07/21 09:02:44;;;;;;;6.88;3.42;;;25.30;99.90;;;;;;5024327;28;20439;-72
2023/07/21 09:05:15;;;;;;;7.10;3.40;;;24.90;99.90;;;;;;5022973;28;20040;-71
2023/07/21 09:07:42;;;;;;;6.22;3.53;;;24.50;99.90;;;;;;5023544;28;20513;-72
2023/07/21 09:10:09;;;;;;;7.13;3.60;;;24.30;99.90;;;;;;5005387;28;20046;-72
2023/07/21 09:12:36;;;;;;;5.80;3.30;;;24.20;99.90;;;;;;5013971;28;20431;-72
2023/07/21 09:15:09;;;;;;;6.90;4.20;;;24.10;99.90;;;;;;5025155;28;20026;-72
2023/07/21 09:17:40;;;;;;;5.85;3.55;;;23.90;99.90;;;;;;5031581;28;20106;-72
2023/07/21 09:20:09;;;;;;;6.57;4.00;;;23.70;99.90;;;;;;5029373;28;20496;-72
2023/07/21 09:22:34;;;;;;;8.57;3.90;;;23.70;99.90;;;;;;5025002;28;20041;-72
2023/07/21 09:25:00;;;;;;;6.35;3.60;;;23.50;99.90;;;;;;5006980;28;20038;-72
2023/07/21 09:27:26;;;;;;;5.40;3.50;;;23.20;99.90;;;;;;5024411;28;20026;-72
2023/07/21 09:30:02;;;;;;;6.60;3.47;;;23.10;99.90;;;;;;5024667;28;20029;-72
2023/07/21 09:32:28;;;;;;;7.38;3.67;;;23.10;99.90;;;;;;5024971;28;20030;-72
2023/07/21 09:35:02;;;;;;;6.45;3.55;;;22.90;99.90;;;;;;5036619;28;20389;-72
2023/07/21 09:37:29;;;;;;;6.20;3.70;;;22.90;99.90;;;;;;5028791;28;20021;-72
2023/07/21 09:39:58;;;;;;;6.32;4.13;;;23.00;99.90;;;;;;5021282;28;20028;-72
2023/07/21 09:42:25;;;;;;;8.45;3.92;;;23.00;99.90;;;;;;5024011;28;20022;-72
2023/07/21 09:44:52;;;;;;;6.95;3.58;;;22.80;99.90;;;;;;5017283;28;20038;-71
2023/07/21 09:47:20;;;;;;;7.32;4.07;;;22.80;99.90;;;;;;5017590;28;20022;-71
2023/07/21 09:49:48;;;;;;;9.15;3.60;;;22.60;99.90;;;;;;5025133;28;20430;-72
2023/07/21 09:52:16;;;;;;;6.50;4.30;;;22.60;99.90;;;;;;4995278;28;20033;-72
2023/07/21 09:54:48;;;;;;;10.23;3.90;;;22.60;99.90;;;;;;5010071;28;20025;-71
2023/07/21 09:57:19;;;;;;;7.20;4.25;;;22.50;99.90;;;;;;5007723;28;20166;-71
2023/07/21 09:59:49;;;;;;;8.23;4.28;;;22.30;99.90;;;;;;5008387;28;20040;-71
2023/07/21 10:02:16;;;;;;;8.13;4.10;;;22.30;99.90;;;;;;5011863;28;20022;-71
2023/07/21 10:04:46;;;;;;;7.65;3.65;;;22.10;99.90;;;;;;5015587;28;20033;-71
2023/07/21 10:07:12;;;;;;;9.00;4.93;;;21.80;99.90;;;;;;5015309;28;20068;-71
2023/07/21 10:09:39;;;;;;;11.10;5.22;;;21.70;99.90;;;;;;5013596;28;20040;-71
2023/07/21 10:12:16;;;;;;;11.02;5.75;;;21.70;99.90;;;;;;5007583;28;20155;-71
2023/07/21 10:14:42;;;;;;;10.30;4.22;;;21.70;99.90;;;;;;5006756;28;20033;-71
2023/07/21 10:17:09;;;;;;;11.45;4.45;;;21.60;99.90;;;;;;5005964;28;20052;-71
2023/07/21 10:19:45;;;;;;;11.73;5.43;;;21.50;99.90;;;;;;5005710;28;20641;-71
2023/07/21 10:22:31;;;;;;;9.25;6.18;;;21.50;99.90;;;;;;4988609;28;20092;-71
2023/07/21 10:24:57;;;;;;;10.75;4.82;;;21.40;99.90;;;;;;5009993;28;20108;-70
2023/07/21 10:27:23;;;;;;;10.93;4.85;;;21.30;99.90;;;;;;5012301;28;20034;-71
2023/07/21 10:30:12;;;;;;;11.80;5.30;;;21.30;99.90;;;;;;5025013;28;20468;-71
2023/07/21 10:32:41;;;;;;;10.07;5.10;;;21.40;99.90;;;;;;5018319;28;20057;-71
2023/07/21 10:35:36;;;;;;;8.45;4.80;;;21.30;99.90;;;;;;5024711;28;20046;-71
2023/07/21 10:38:24;;;;;;;14.52;5.82;;;21.10;99.90;;;;;;5029982;28;20028;-71
2023/07/21 10:40:50;;;;;;;9.68;4.78;;;20.80;99.90;;;;;;5028230;28;20028;-71
2023/07/21 10:43:16;;;;;;;6.60;4.53;;;20.80;99.90;;;;;;5023748;28;20030;-71
2023/07/21 10:45:41;;;;;;;6.57;3.83;;;20.90;99.90;;;;;;5021040;28;20042;-71
2023/07/21 10:48:16;;;;;;;9.15;4.25;;;20.80;99.90;;;;;;5023059;28;20033;-71
2023/07/21 10:50:54;;;;;;;7.28;4.53;;;20.90;99.90;;;;;;5031098;28;20025;-71
2023/07/21 10:53:23;;;;;;;8.02;4.60;;;20.80;99.90;;;;;;5018904;28;20026;-71
2023/07/21 10:55:55;;;;;;;8.82;4.88;;;20.80;99.90;;;;;;5023093;28;20727;-71
2023/07/21 10:58:21;;;;;;;7.28;4.15;;;20.80;99.90;;;;;;5004310;28;20029;-71
2023/07/21 11:00:49;;;;;;;11.13;5.22;;;20.80;99.90;;;;;;5002705;28;20031;-71
2023/07/21 11:03:15;;;;;;;8.35;5.10;;;20.70;99.90;;;;;;5002749;28;20151;-71
2023/07/21 11:05:41;;;;;;;14.20;5.13;;;20.60;99.90;;;;;;5004148;28;20126;-71
2023/07/21 11:08:26;;;;;;;11.40;4.55;;;20.60;99.90;;;;;;5007201;28;20038;-71
2023/07/21 11:10:52;;;;;;;6.60;3.63;;;20.60;99.90;;;;;;5021490;28;20058;-71
2023/07/21 11:13:18;;;;;;;8.88;5.00;;;20.30;99.90;;;;;;5029875;28;20026;-71
2023/07/21 11:15:52;;;;;;;11.98;5.32;;;20.10;99.90;;;;;;5029199;28;20022;-71
2023/07/21 11:18:19;;;;;;;8.50;4.25;;;20.20;99.90;;;;;;5029015;28;20087;-71
2023/07/21 11:20:52;;;;;;;10.52;4.07;;;20.10;99.90;;;;;;5015402;28;20084;-71
2023/07/21 11:23:18;;;;;;;9.90;4.53;;;20.10;99.90;;;;;;5014042;28;20040;-72
2023/07/21 11:26:09;;;;;;;7.88;3.92;;;20.00;99.90;;;;;;5004982;28;20029;-72
2023/07/21 11:28:37;;;;;;;8.60;4.53;;;20.00;99.90;;;;;;5008776;28;20025;-73
2023/07/21 11:31:09;;;;;;;8.77;4.20;;;19.90;99.90;;;;;;5014373;28;20021;-73
2023/07/21 11:33:48;;;;;;;8.10;3.92;;;20.00;99.90;;;;;;5009968;28;20097;-73
2023/07/21 11:36:22;;;;;;;8.48;4.30;;;20.00;99.90;;;;;;5011327;28;20116;-73
2023/07/21 11:39:04;;;;;;;6.40;3.65;;;20.00;99.90;;;;;;5015236;28;20030;-72
2023/07/21 11:41:40;;;;;;;7.10;4.22;;;19.90;99.90;;;;;;5006944;28;20026;-73
2023/07/21 11:44:10;;;;;;;9.05;4.07;;;19.90;99.90;;;;;;5011447;28;20040;-73
2023/07/21 11:46:37;;;;;;;9.98;4.15;;;19.80;99.90;;;;;;5007552;28;20025;-73
2023/07/21 11:49:12;;;;;;;5.60;3.45;;;20.00;99.90;;;;;;5011246;28;20885;-73
2023/07/21 11:51:45;;;;;;;7.63;3.95;;;19.90;99.90;;;;;;5008184;28;20036;-73
2023/07/21 11:54:28;;;;;;;6.00;3.67;;;20.00;99.90;;;;;;5013985;28;20029;-73
2023/07/21 11:56:56;;;;;;;7.47;3.10;;;20.40;99.90;;;;;;5007716;28;20026;-73
2023/07/21 11:59:23;;;;;;;7.97;3.47;;;20.90;99.90;;;;;;5013433;28;20047;-73
2023/07/21 12:01:49;;;;;;;6.40;3.80;;;21.30;99.90;;;;;;5011373;28;20026;-73
2023/07/21 12:04:17;;;;;;;6.47;3.72;;;21.40;99.90;;;;;;5017320;28;20404;-73
2023/07/21 12:06:43;;;;;;;6.20;3.35;;;21.20;99.90;;;;;;5011899;28;20030;-73
2023/07/21 12:09:09;;;;;;;6.03;2.63;;;21.60;99.90;;;;;;5010393;28;20099;-73
2023/07/21 12:11:35;;;;;;;6.65;2.92;;;21.80;99.90;;;;;;5009106;28;20033;-73
2023/07/21 12:14:03;;;;;;;8.98;3.40;;;22.00;99.90;;;;;;5008582;28;20104;-72
2023/07/21 12:16:29;;;;;;;7.32;3.47;;;22.10;99.90;;;;;;5006107;28;20029;-72
2023/07/21 12:18:56;;;;;;;6.18;3.55;;;22.50;99.90;;;;;;5011154;28;20566;-72
2023/07/21 12:21:25;;;;;;;7.82;3.33;;;22.70;99.90;;;;;;5010665;28;20042;-72
2023/07/21 12:23:51;;;;;;;5.57;2.85;;;23.10;99.90;;;;;;5013511;28;20037;-72
2023/07/21 12:26:18;;;;;;;6.25;2.47;;;23.10;99.90;;;;;;5017248;28;20416;-72
2023/07/21 12:28:47;;;;;;;5.07;2.17;;;23.40;99.90;;;;;;4978115;28;20055;-72
2023/07/21 12:31:17;;;;;;;6.95;3.03;;;23.10;99.90;;;;;;4969115;28;20034;-72
2023/07/21 12:33:44;;;;;;;7.85;2.75;;;23.30;99.90;;;;;;4969198;28;20045;-72
2023/07/21 12:36:12;;;;;;;5.60;2.58;;;23.40;99.90;;;;;;4970301;28;20505;-71
2023/07/21 12:38:38;;;;;;;7.10;2.92;;;23.60;99.90;;;;;;4968038;28;20019;-73
2023/07/21 12:41:03;;;;;;;8.48;3.17;;;23.40;99.90;;;;;;4965437;28;20039;-71
2023/07/21 12:43:29;;;;;;;5.78;3.60;;;23.90;99.90;;;;;;4969057;28;20399;-71
2023/07/21 12:45:55;;;;;;;6.72;3.50;;;24.20;99.90;;;;;;4970424;28;20049;-72
2023/07/21 12:48:21;;;;;;;6.38;3.83;;;24.30;99.90;;;;;;4971026;28;20035;-71